East Hazel Crest, Illinois
Current Conditions -  °F | °C
As of 11:55 AM on Friday 24 Oct 2014 (Local Time) from KIGQ Reporting Station
Broken Clouds Broken Clouds  
Wind Chill: 61°   Ceiling: 2500
Heat Index: 61°   Visibility: 10mi
Dew Point: 50°   Wind: 6mph
Humidity: 68%   Direction: 250°WSW
Pressure: 30.05"   Gusts: NA
Location:  41.5748°N, 87.6813°W
Report Text: KIGQ 241655Z AUTO 25005KT 10SM BKN025 16/10 A3005 RMK AO2 T01590101
Loading
Personal Weather Stations






























Interactive Weather Map
Tropical Storm Tracking
New forecast layout! Learn more

10-Day Weather Forecast

Advertisements
Track Severe Weather on mobile